Time;durP1;ratioP1;P1;durP2;ratioP2;P2;SDS_P1;SDS_P2;PMS_P1;PMS_P2;Temp;Humidity;BMP_temperature;BMP_pressure;BME280_temperature;BME280_humidity;BME280_pressure;Samples;Min_cycle;Max_cycle;Signal;HPM_P1;HPM_P2
2022/09/03 00:00:09;;;;;;;5.40;3.00;;;;;;;16.13;95.76;99046.56;1633818;87;21079;-79
2022/09/03 00:02:44;;;;;;;4.60;2.77;;;;;;;16.14;95.59;99043.03;1632473;88;21115;-79
2022/09/03 00:05:50;;;;;;;3.92;2.67;;;;;;;16.10;95.15;99044.95;1634773;88;21046;-78
2022/09/03 00:08:40;;;;;;;4.72;2.37;;;;;;;16.10;95.67;99049.72;1634705;88;21055;-79
2022/09/03 00:11:27;;;;;;;4.47;2.58;;;;;;;16.14;95.60;99049.59;1634636;88;21114;-78
2022/09/03 00:14:20;;;;;;;5.78;2.70;;;;;;;16.14;95.70;99052.21;1616449;88;21068;-79
2022/09/03 00:16:57;;;;;;;4.97;2.42;;;;;;;16.14;95.79;99049.59;1634880;88;21104;-79
2022/09/03 00:19:29;;;;;;;5.45;2.80;;;;;;;16.17;95.75;99055.51;1634735;88;21043;-78
2022/09/03 00:22:03;;;;;;;5.35;2.58;;;;;;;16.20;95.95;99055.37;1634568;87;21534;-79
2022/09/03 00:24:34;;;;;;;4.47;2.77;;;;;;;16.24;96.05;99062.64;1567917;90;21051;-78
2022/09/03 00:27:06;;;;;;;4.70;2.50;;;;;;;16.28;95.81;99055.84;1595448;90;21019;-78
2022/09/03 00:29:40;;;;;;;7.40;2.50;;;;;;;16.27;95.54;99055.91;1636105;87;21136;-79
2022/09/03 00:32:17;;;;;;;5.17;2.60;;;;;;;16.30;95.58;99055.77;1569496;91;21067;-79
2022/09/03 00:34:52;;;;;;;7.58;2.67;;;;;;;16.30;95.10;99057.09;1571814;88;21100;-78
2022/09/03 00:37:19;;;;;;;4.70;2.65;;;;;;;16.31;95.60;99058.77;1639475;87;21080;-78
2022/09/03 00:39:45;;;;;;;5.35;2.70;;;;;;;16.33;95.29;99062.64;1608542;88;21036;-80
2022/09/03 00:42:32;;;;;;;6.22;2.60;;;;;;;16.33;95.15;99058.23;1608312;88;21040;-78
2022/09/03 00:45:34;;;;;;;6.17;2.70;;;;;;;16.36;95.64;99062.03;1583494;90;21576;-78
2022/09/03 00:48:18;;;;;;;5.47;2.65;;;;;;;16.39;95.10;99060.55;1582990;90;21494;-78
2022/09/03 00:51:08;;;;;;;5.30;2.50;;;;;;;16.39;95.27;99061.02;1606394;89;21094;-78
2022/09/03 00:53:55;;;;;;;8.75;2.65;;;;;;;16.37;94.93;99061.56;1608550;89;21071;-78
2022/09/03 00:56:39;;;;;;;6.50;2.90;;;;;;;16.32;95.10;99055.23;1583734;89;21570;-78
2022/09/03 00:59:40;;;;;;;6.40;3.00;;;;;;;16.34;95.64;99058.63;1606842;88;21575;-78
2022/09/03 01:02:32;;;;;;;4.15;2.90;;;;;;;16.40;95.87;99058.33;1607287;89;21495;-78
2022/09/03 01:05:19;;;;;;;6.53;2.83;;;;;;;16.42;95.91;99063.03;1601067;89;21019;-79
2022/09/03 01:08:07;;;;;;;4.53;2.87;;;;;;;16.47;95.77;99066.73;1639492;87;21014;-79
2022/09/03 01:10:43;;;;;;;4.95;2.62;;;;;;;16.48;95.52;99060.10;1639555;86;20986;-79
2022/09/03 01:13:21;;;;;;;3.90;2.40;;;;;;;16.53;95.69;99066.42;1639455;87;21034;-79
2022/09/03 01:16:25;;;;;;;5.15;2.67;;;;;;;16.59;96.04;99061.34;1597232;88;21062;-78
2022/09/03 01:19:35;;;;;;;5.17;2.75;;;;;;;16.65;96.14;99063.65;1605831;89;21031;-79
2022/09/03 01:22:59;;;;;;;5.47;3.20;;;;;;;16.65;95.67;99058.40;1640999;86;21043;-78
2022/09/03 01:26:07;;;;;;;4.65;2.60;;;;;;;16.65;95.59;99065.83;1640532;87;21074;-82
2022/09/03 01:29:00;;;;;;;6.08;2.90;;;;;;;16.64;95.56;99065.91;1639498;87;21005;-79
2022/09/03 01:31:58;;;;;;;4.50;2.65;;;;;;;16.63;95.60;99069.00;1639628;87;21037;-78
2022/09/03 01:34:38;;;;;;;6.10;3.08;;;;;;;16.63;95.91;99081.25;1606244;86;21667;-80
2022/09/03 01:37:38;;;;;;;5.00;2.70;;;;;;;16.64;96.10;99074.62;1618574;89;21091;-79
2022/09/03 01:40:30;;;;;;;5.05;2.98;;;;;;;16.65;95.71;99072.39;1618190;88;21322;-79
2022/09/03 01:43:08;;;;;;;4.67;2.90;;;;;;;16.66;96.21;99076.70;1619112;87;21610;-79
2022/09/03 01:46:04;;;;;;;6.45;3.00;;;;;;;16.68;95.54;99070.07;1618686;89;21099;-81
2022/09/03 01:48:51;;;;;;;5.58;3.30;;;;;;;16.61;95.42;99069.98;1618610;89;21064;-79
2022/09/03 01:51:24;;;;;;;4.75;3.00;;;;;;;16.58;95.69;99070.15;1618717;88;22284;-78
2022/09/03 01:54:21;;;;;;;9.38;3.30;;;;;;;16.57;96.43;99069.75;1618619;89;21028;-78
2022/09/03 01:57:33;;;;;;;5.00;3.10;;;;;;;16.50;95.93;99075.31;1618327;89;21017;-79
2022/09/03 02:00:12;;;;;;;4.45;2.95;;;;;;;16.45;96.12;99076.45;1579969;90;21015;-79
2022/09/03 02:02:42;;;;;;;6.00;3.05;;;;;;;16.38;95.27;99078.55;1618684;89;21032;-78
2022/09/03 02:05:25;;;;;;;5.35;3.00;;;;;;;16.34;95.60;99078.78;1579301;90;21008;-78
2022/09/03 02:08:05;;;;;;;5.70;2.67;;;;;;;16.29;95.55;99077.23;1546192;91;21606;-82
2022/09/03 02:10:46;;;;;;;4.17;2.60;;;;;;;16.24;95.44;99077.91;1579192;91;21004;-81
2022/09/03 02:13:26;;;;;;;3.35;2.10;;;;;;;16.20;95.73;99072.42;1554161;91;21163;-78
2022/09/03 02:15:57;;;;;;;3.30;2.00;;;;;;;16.16;96.38;99073.97;1579921;90;21024;-80
2022/09/03 02:18:32;;;;;;;3.35;2.00;;;;;;;16.14;96.35;99071.87;1618662;88;21089;-79
2022/09/03 02:21:00;;;;;;;3.12;1.90;;;;;;;16.07;96.44;99077.39;1618630;88;21053;-79
2022/09/03 02:23:28;;;;;;;2.95;1.90;;;;;;;16.03;96.49;99081.08;1579913;90;21072;-80
2022/09/03 02:25:59;;;;;;;2.65;1.72;;;;;;;16.01;96.54;99075.06;1618496;89;21031;-79
2022/09/03 02:28:28;;;;;;;3.77;1.72;;;;;;;15.98;96.69;99075.70;1618693;89;21654;-79
2022/09/03 02:30:55;;;;;;;1.90;1.42;;;;;;;15.91;97.13;99075.12;1572271;91;21492;-80
2022/09/03 02:33:22;;;;;;;2.60;1.70;;;;;;;15.87;97.17;99077.03;1553842;91;21115;-79
2022/09/03 02:35:50;;;;;;;2.08;1.30;;;;;;;15.83;98.19;99072.02;1591731;86;21506;-79
2022/09/03 02:38:21;;;;;;;2.55;1.50;;;;;;;15.82;97.29;99079.03;1569522;90;21114;-79
2022/09/03 02:40:48;;;;;;;2.10;1.30;;;;;;;15.80;97.74;99076.95;1625829;88;21055;-80
2022/09/03 02:43:29;;;;;;;1.20;1.02;;;;;;;15.79;97.73;99075.70;1634474;88;21103;-79
2022/09/03 02:46:03;;;;;;;2.12;1.32;;;;;;;15.80;97.80;99073.48;1635315;88;21072;-80
2022/09/03 02:48:29;;;;;;;;;;;;;;;15.75;98.03;99075.45;1637712;88;21059;-79
2022/09/03 02:50:56;;;;;;;1.80;1.30;;;;;;;15.74;98.41;99075.05;1636750;88;20101;-79
2022/09/03 02:53:23;;;;;;;2.20;1.40;;;;;;;15.71;98.43;99077.33;1638099;88;21003;-79
2022/09/03 02:55:49;;;;;;;2.00;1.30;;;;;;;15.72;98.15;99079.05;1598054;85;21097;-80
2022/09/03 02:58:16;;;;;;;1.50;1.10;;;;;;;15.68;98.74;99082.27;1636499;84;21039;-80
2022/09/03 03:00:43;;;;;;;1.67;1.10;;;;;;;15.67;99.14;99081.02;1595656;90;21487;-79
2022/09/03 03:03:10;;;;;;;2.12;1.07;;;;;;;15.64;99.35;99089.88;1634361;88;21047;-78
2022/09/03 03:05:56;;;;;;;1.40;1.10;;;;;;;15.58;99.71;99086.23;1568732;91;21027;-79
2022/09/03 03:08:27;;;;;;;1.50;1.15;;;;;;;15.56;99.45;99081.52;1594908;90;21571;-79
2022/09/03 03:10:59;;;;;;;1.50;1.10;;;;;;;15.53;99.92;99072.48;1634560;88;21274;-77
2022/09/03 03:13:29;;;;;;;2.25;1.30;;;;;;;15.54;99.82;99081.18;1595096;90;21027;-78
2022/09/03 03:16:07;;;;;;;1.12;1.00;;;;;;;15.53;99.88;99078.19;1634711;87;21062;-80
2022/09/03 03:18:34;;;;;;;1.27;1.00;;;;;;;15.49;99.86;99080.09;1595157;90;21014;-79
2022/09/03 03:21:12;;;;;;;1.02;0.90;;;;;;;15.46;100.00;99077.16;1634638;88;21042;-79
2022/09/03 03:23:40;;;;;;;2.52;1.10;;;;;;;15.46;99.98;99086.33;1594992;90;21046;-79
2022/09/03 03:26:13;;;;;;;1.00;0.90;;;;;;;15.42;100.00;99091.31;1568191;90;21094;-82
2022/09/03 03:28:41;;;;;;;1.87;1.00;;;;;;;15.43;100.00;99087.77;1595471;90;21023;-78
2022/09/03 03:31:14;;;;;;;3.15;1.17;;;;;;;15.43;100.00;99091.69;1634133;88;21107;-79
2022/09/03 03:33:42;;;;;;;1.17;0.90;;;;;;;15.46;100.00;99087.64;1634084;88;21028;-79
2022/09/03 03:36:14;;;;;;;2.00;1.30;;;;;;;15.45;100.00;99088.55;1595130;87;21062;-78
2022/09/03 03:38:43;;;;;;;1.53;1.00;;;;;;;15.46;99.40;99086.80;1634997;88;21055;-78
2022/09/03 03:41:17;;;;;;;1.37;0.95;;;;;;;15.40;100.00;99090.97;1595106;90;21018;-79
2022/09/03 03:43:44;;;;;;;1.07;0.98;;;;;;;15.37;100.00;99093.28;1633550;88;21095;-80
2022/09/03 03:46:13;;;;;;;1.82;1.10;;;;;;;15.38;99.63;99087.57;1590202;90;21010;-79
2022/09/03 03:48:40;;;;;;;1.62;1.20;;;;;;;15.41;99.90;99086.14;1589386;90;21054;-80
2022/09/03 03:51:09;;;;;;;1.47;1.10;;;;;;;15.35;100.00;99087.73;1596477;90;21053;-78
2022/09/03 03:53:37;;;;;;;1.37;1.02;;;;;;;15.37;99.78;99091.12;1596518;90;21058;-80
2022/09/03 03:56:11;;;;;;;2.25;1.10;;;;;;;15.37;100.00;99093.75;1596645;90;21002;-79
2022/09/03 03:58:41;;;;;;;;;;;;;;;15.37;100.00;99088.51;1599108;90;21525;-78
2022/09/03 04:01:16;;;;;;;2.30;1.20;;;;;;;15.31;100.00;99084.39;1596713;87;20149;-81
2022/09/03 04:03:43;;;;;;;3.17;1.27;;;;;;;15.29;100.00;99087.06;1596770;90;21005;-80
2022/09/03 04:06:14;;;;;;;2.70;0.90;;;;;;;15.28;100.00;99079.30;1597018;90;21090;-79
2022/09/03 04:08:43;;;;;;;1.27;0.95;;;;;;;15.25;100.00;99084.20;1596945;88;21093;-78
2022/09/03 04:11:13;;;;;;;1.95;1.20;;;;;;;15.25;100.00;99084.66;1596405;90;21086;-79
2022/09/03 04:13:43;;;;;;;1.45;1.00;;;;;;;15.25;100.00;99078.12;1569356;91;21071;-78
2022/09/03 04:16:17;;;;;;;3.15;1.05;;;;;;;15.26;100.00;99066.27;1594406;89;21066;-81
2022/09/03 04:18:44;;;;;;;0.98;0.88;;;;;;;15.23;100.00;99076.87;1568132;90;21023;-80
2022/09/03 04:21:15;;;;;;;2.47;1.07;;;;;;;15.24;99.80;99072.03;1595265;90;21050;-79
2022/09/03 04:23:44;;;;;;;1.55;1.15;;;;;;;15.22;100.00;99076.49;1633886;88;21626;-79
2022/09/03 04:26:15;;;;;;;4.03;1.12;;;;;;;15.20;100.00;99082.69;1569058;91;21055;-82
2022/09/03 04:28:44;;;;;;;1.50;1.10;;;;;;;15.27;99.85;99084.14;1595392;89;21058;-78
2022/09/03 04:31:13;;;;;;;4.37;1.00;;;;;;;15.28;99.50;99079.30;1630160;88;20997;-79
2022/09/03 04:33:40;;;;;;;1.30;1.10;;;;;;;15.22;100.00;99075.62;1596569;90;21049;-78
2022/09/03 04:36:13;;;;;;;1.20;1.00;;;;;;;15.26;100.00;99083.30;1595952;87;21062;-78
2022/09/03 04:38:41;;;;;;;;;;;;;;;15.22;100.00;99081.73;1597753;90;21581;-80
2022/09/03 04:41:12;;;;;;;4.25;1.10;;;;;;;15.23;100.00;99085.19;1579651;90;20180;-80
2022/09/03 04:43:43;;;;;;;1.98;1.00;;;;;;;15.24;100.00;99085.13;1570325;90;21058;-80
2022/09/03 04:46:12;;;;;;;1.77;1.30;;;;;;;15.27;100.00;99082.36;1597200;90;21085;-81
2022/09/03 04:48:39;;;;;;;2.98;1.10;;;;;;;15.27;100.00;99090.22;1597990;90;21050;-80
2022/09/03 04:51:12;;;;;;;3.65;1.30;;;;;;;15.31;100.00;99087.01;1597581;90;21053;-80
2022/09/03 04:53:41;;;;;;;4.58;1.37;;;;;;;15.33;100.00;99088.26;1596648;90;21110;-81
2022/09/03 04:56:18;;;;;;;2.00;1.25;;;;;;;15.36;100.00;99086.36;1596373;90;21061;-79
2022/09/03 04:58:46;;;;;;;2.12;1.20;;;;;;;15.35;99.88;99087.26;1596742;90;21570;-80
2022/09/03 05:01:17;;;;;;;1.98;1.42;;;;;;;15.37;99.59;99104.23;1596515;90;21049;-79
2022/09/03 05:03:45;;;;;;;2.37;1.42;;;;;;;15.37;99.81;99098.52;1595231;90;21586;-78
2022/09/03 05:06:12;;;;;;;1.90;1.30;;;;;;;15.39;99.70;99094.52;1596304;90;21082;-79
2022/09/03 05:08:39;;;;;;;2.52;1.50;;;;;;;15.40;99.76;99098.83;1595956;90;21056;-79
2022/09/03 05:11:07;;;;;;;4.65;1.52;;;;;;;15.40;99.80;99098.83;1596011;90;22127;-78
2022/09/03 05:13:40;;;;;;;2.77;1.50;;;;;;;15.41;99.88;99094.00;1596001;90;21042;-79
2022/09/03 05:16:10;;;;;;;2.42;1.40;;;;;;;15.46;99.58;99098.59;1595355;89;21046;-78
2022/09/03 05:18:37;;;;;;;4.60;1.90;;;;;;;15.50;99.48;99105.39;1595430;90;21580;-80
2022/09/03 05:21:11;;;;;;;4.05;1.65;;;;;;;15.49;99.44;99104.98;1596532;90;21066;-80
2022/09/03 05:23:43;;;;;;;1.90;1.35;;;;;;;15.46;99.98;99109.06;1595984;90;21066;-79
2022/09/03 05:26:15;;;;;;;2.80;1.42;;;;;;;15.50;99.93;99103.61;1596385;90;21564;-79
2022/09/03 05:28:43;;;;;;;4.58;1.35;;;;;;;15.54;99.35;99116.55;1595667;90;21375;-78
2022/09/03 05:31:17;;;;;;;2.87;1.22;;;;;;;15.51;99.28;99114.46;1596197;90;21066;-78
2022/09/03 05:33:47;;;;;;;2.20;1.40;;;;;;;15.59;98.91;99123.29;1596388;89;21049;-79
2022/09/03 05:36:17;;;;;;;3.12;1.85;;;;;;;15.55;98.91;99121.73;1600837;88;21071;-79
2022/09/03 05:38:46;;;;;;;3.85;1.40;;;;;;;15.59;98.99;99131.16;1622325;87;21028;-81
2022/09/03 05:41:16;;;;;;;4.80;1.70;;;;;;;15.63;98.97;99134.02;1623238;87;21031;-79
2022/09/03 05:43:43;;;;;;;5.72;1.40;;;;;;;15.70;98.99;99134.15;1623336;87;21094;-80
2022/09/03 05:46:15;;;;;;;2.65;1.42;;;;;;;15.78;98.73;99135.14;1623284;88;21012;-81
2022/09/03 05:48:42;;;;;;;2.12;1.40;;;;;;;15.82;99.00;99116.20;1623259;87;21540;-82
2022/09/03 05:51:15;;;;;;;2.05;1.45;;;;;;;15.92;98.93;99120.09;1622479;88;21064;-79
2022/09/03 05:53:43;;;;;;;;;;;;;;;16.03;98.91;99115.17;1656916;86;21045;-81
2022/09/03 05:56:17;;;;;;;2.35;1.30;;;;;;;16.15;98.56;99111.13;1654872;85;20868;-79
2022/09/03 05:58:47;;;;;;;1.55;1.07;;;;;;;16.24;98.01;99119.03;1655131;86;20993;-79
2022/09/03 06:01:20;;;;;;;2.33;1.30;;;;;;;16.32;97.03;99114.73;1654880;87;21037;-81
2022/09/03 06:03:50;;;;;;;;;;;;;;;16.39;96.92;99108.25;1625718;87;20976;-81
2022/09/03 06:06:16;;;;;;;5.85;1.55;;;;;;;16.43;96.52;99115.91;1653434;87;20173;-79
2022/09/03 06:08:43;;;;;;;4.87;1.17;;;;;;;16.49;96.46;99112.98;1655065;87;21049;-80
2022/09/03 06:11:11;;;;;;;1.98;1.35;;;;;;;16.58;95.81;99112.14;1654720;85;21447;-81
2022/09/03 06:13:38;;;;;;;3.27;1.50;;;;;;;16.60;95.41;99119.48;1652101;85;21041;-80
2022/09/03 06:16:06;;;;;;;2.60;1.30;;;;;;;16.68;95.60;99114.22;1655185;87;21532;-79
2022/09/03 06:18:33;;;;;;;4.67;1.30;;;;;;;16.63;94.92;99113.62;1655097;85;21533;-79
2022/09/03 06:21:04;;;;;;;2.22;1.07;;;;;;;16.64;95.03;99121.86;1623502;87;21030;-79
2022/09/03 06:23:33;;;;;;;1.90;1.20;;;;;;;16.63;94.80;99121.94;1622499;88;21516;-80
2022/09/03 06:26:07;;;;;;;1.87;1.10;;;;;;;16.66;94.45;99128.36;1655103;86;21615;-79
2022/09/03 06:28:36;;;;;;;1.40;1.00;;;;;;;16.65;94.52;99130.14;1655162;85;21057;-80
2022/09/03 06:31:06;;;;;;;2.02;1.00;;;;;;;16.67;94.57;99136.60;1654421;86;21045;-79
2022/09/03 06:33:35;;;;;;;2.10;1.00;;;;;;;16.64;94.30;99139.40;1650867;85;21088;-81
2022/09/03 06:36:06;;;;;;;2.42;1.27;;;;;;;16.75;94.31;99131.84;1653939;85;21089;-81
2022/09/03 06:38:34;;;;;;;1.22;1.00;;;;;;;16.66;93.83;99134.45;1614191;89;21024;-79
2022/09/03 06:41:09;;;;;;;3.17;1.10;;;;;;;16.68;94.13;99132.59;1650048;85;21170;-79
2022/09/03 06:43:39;;;;;;;2.00;1.00;;;;;;;16.70;93.52;99124.66;1649705;85;21136;-78
2022/09/03 06:46:11;;;;;;;1.47;1.00;;;;;;;16.73;93.43;99122.33;1613910;88;21093;-78
2022/09/03 06:48:40;;;;;;;1.62;0.72;;;;;;;16.75;93.55;99126.60;1650308;85;21548;-80
2022/09/03 06:51:14;;;;;;;0.78;0.70;;;;;;;16.80;93.07;99131.14;1613937;89;21067;-78
2022/09/03 06:53:44;;;;;;;1.45;0.82;;;;;;;16.86;92.89;99136.11;1650893;86;21075;-80
2022/09/03 06:56:16;;;;;;;1.02;0.90;;;;;;;16.84;92.65;99128.78;1651051;87;21089;-79
2022/09/03 06:58:46;;;;;;;1.12;0.90;;;;;;;16.90;92.83;99135.03;1615075;89;21008;-79
2022/09/03 07:01:19;;;;;;;1.85;0.90;;;;;;;16.98;92.56;99133.33;1650343;85;21565;-79
2022/09/03 07:03:50;;;;;;;3.45;0.90;;;;;;;17.01;91.75;99130.56;1614304;89;21116;-79
2022/09/03 07:06:19;;;;;;;1.15;0.90;;;;;;;17.08;92.09;99128.47;1614576;87;21044;-79
2022/09/03 07:08:46;;;;;;;1.32;0.90;;;;;;;17.20;92.21;99134.39;1614249;89;21028;-80
2022/09/03 07:11:18;;;;;;;1.55;0.90;;;;;;;17.32;90.75;99128.12;1613991;87;21040;-79
2022/09/03 07:13:49;;;;;;;1.22;0.82;;;;;;;17.35;90.79;99133.20;1650089;87;21581;-83
2022/09/03 07:16:19;;;;;;;4.30;0.90;;;;;;;17.39;90.03;99138.23;1629178;87;21058;-80
2022/09/03 07:18:47;;;;;;;3.08;1.00;;;;;;;17.51;90.34;99148.58;1652612;85;21596;-79
2022/09/03 07:21:18;;;;;;;6.33;1.45;;;;;;;17.61;88.69;99147.63;1649302;87;21093;-80
2022/09/03 07:23:46;;;;;;;2.83;1.17;;;;;;;17.67;88.76;99148.14;1649094;85;21082;-79
2022/09/03 07:26:20;;;;;;;4.87;1.22;;;;;;;17.70;88.24;99149.27;1649477;86;21594;-80
2022/09/03 07:28:48;;;;;;;1.20;1.00;;;;;;;17.79;88.44;99148.42;1650296;85;21057;-79
2022/09/03 07:31:24;;;;;;;1.75;0.85;;;;;;;17.84;87.84;99155.14;1650439;85;21554;-79
2022/09/03 07:33:48;;;;;;;5.53;0.85;;;;;;;17.89;86.44;99146.55;1650376;86;21045;-80
2022/09/03 07:36:16;;;;;;;1.10;0.78;;;;;;;17.98;87.15;99154.39;1650176;86;21074;-79
2022/09/03 07:38:44;;;;;;;2.70;0.70;;;;;;;18.02;85.82;99149.34;1669399;85;21507;-79
2022/09/03 07:41:13;;;;;;;3.60;1.00;;;;;;;18.08;85.79;99154.30;1649516;85;21029;-79
2022/09/03 07:43:48;;;;;;;1.52;0.75;;;;;;;18.12;85.40;99154.11;1650518;87;21057;-80
2022/09/03 07:46:24;;;;;;;1.55;0.70;;;;;;;18.11;84.22;99161.64;1631624;87;21061;-79
2022/09/03 07:49:01;;;;;;;0.80;0.80;;;;;;;18.15;85.20;99157.91;1650348;85;21025;-78
2022/09/03 07:51:35;;;;;;;2.25;1.00;;;;;;;18.15;84.05;99156.58;1650655;87;21097;-79
2022/09/03 07:54:05;;;;;;;1.22;0.78;;;;;;;18.27;85.66;99161.16;1649637;87;21013;-79
2022/09/03 07:56:34;;;;;;;1.37;0.90;;;;;;;18.26;85.10;99168.66;1613806;87;21108;-78
2022/09/03 07:59:02;;;;;;;5.62;1.15;;;;;;;18.33;85.07;99171.34;1650023;87;21551;-79
2022/09/03 08:01:32;;;;;;;4.00;1.22;;;;;;;18.32;84.44;99170.95;1649584;85;21117;-79
2022/09/03 08:04:01;;;;;;;0.72;0.72;;;;;;;18.39;83.74;99172.31;1650828;87;21596;-78
2022/09/03 08:06:30;;;;;;;1.05;0.88;;;;;;;18.56;83.26;99167.88;1614333;89;21068;-79
2022/09/03 08:09:00;;;;;;;1.98;0.80;;;;;;;18.66;82.58;99171.67;1650180;87;21121;-78
2022/09/03 08:11:28;;;;;;;3.45;0.88;;;;;;;18.82;82.95;99172.55;1632630;87;21075;-80
2022/09/03 08:14:01;;;;;;;3.65;0.70;;;;;;;18.95;82.25;99175.30;1617850;83;21076;-80
2022/09/03 08:16:30;;;;;;;1.57;0.60;;;;;;;18.97;80.40;99169.48;1617749;83;21044;-80
2022/09/03 08:18:58;;;;;;;1.85;0.85;;;;;;;18.97;79.41;99173.42;1616949;83;21019;-79
2022/09/03 08:21:26;;;;;;;1.12;0.80;;;;;;;19.06;81.30;99172.06;1629548;87;21042;-78
2022/09/03 08:24:01;;;;;;;1.22;0.70;;;;;;;19.09;78.55;99174.50;1650411;85;21108;-79
2022/09/03 08:26:24;;;;;;;0.70;0.70;;;;;;;19.16;79.48;99172.34;1651148;85;21093;-79
2022/09/03 08:28:52;;;;;;;1.37;0.80;;;;;;;19.25;79.15;99163.42;1614151;89;21035;-79
2022/09/03 08:31:21;;;;;;;2.22;0.90;;;;;;;19.25;78.75;99166.05;1614258;89;21079;-79
2022/09/03 08:33:51;;;;;;;4.67;1.27;;;;;;;19.36;79.43;99160.60;1613216;89;21603;-78
2022/09/03 08:36:31;;;;;;;0.85;0.62;;;;;;;19.43;77.77;99154.03;1615232;87;21512;-79
2022/09/03 08:39:08;;;;;;;4.72;0.80;;;;;;;19.45;77.59;99160.90;1621118;87;21050;-77
2022/09/03 08:42:10;;;;;;;1.67;0.70;;;;;;;19.44;76.11;99159.70;1653520;87;21050;-82
2022/09/03 08:44:55;;;;;;;0.82;0.60;;;;;;;19.50;76.26;99167.23;1654817;85;21068;-79
2022/09/03 08:47:39;;;;;;;1.27;0.93;;;;;;;19.67;77.12;99168.34;1654705;85;21092;-78
2022/09/03 08:50:23;;;;;;;1.80;0.70;;;;;;;19.76;76.25;99167.46;1655018;86;21036;-78
2022/09/03 08:52:59;;;;;;;0.72;0.70;;;;;;;19.83;75.65;99170.08;1655148;86;21034;-79
2022/09/03 08:55:35;;;;;;;0.65;0.65;;;;;;;19.79;74.18;99176.01;1655247;85;21616;-78
2022/09/03 08:58:15;;;;;;;2.05;0.80;;;;;;;19.80;73.43;99164.53;1662220;85;21023;-79
2022/09/03 09:01:00;;;;;;;0.60;0.60;;;;;;;19.84;73.79;99166.03;1664295;85;21044;-80
2022/09/03 09:04:12;;;;;;;1.65;0.70;;;;;;;19.97;72.45;99163.45;1655596;85;21006;-79
2022/09/03 09:07:10;;;;;;;0.60;0.60;;;;;;;19.99;73.49;99163.37;1655261;87;21493;-78
2022/09/03 09:09:57;;;;;;;1.42;0.50;;;;;;;20.20;72.13;99170.41;1659471;85;21033;-79
2022/09/03 09:13:21;;;;;;;0.50;0.50;;;;;;;20.25;71.21;99163.03;1667734;85;21581;-79
2022/09/03 09:16:37;;;;;;;4.40;1.95;;;;;;;20.39;71.71;99165.66;1638677;87;21049;-80
2022/09/03 09:19:27;;;;;;;0.68;0.60;;;;;;;20.51;70.30;99172.39;1654933;85;21025;-78
2022/09/03 09:22:08;;;;;;;0.80;0.75;;;;;;;20.58;71.47;99161.33;1655094;85;21549;-78
2022/09/03 09:24:46;;;;;;;0.88;0.80;;;;;;;20.74;71.30;99161.69;1654150;87;21044;-79
2022/09/03 09:27:16;;;;;;;1.32;0.70;;;;;;;20.84;70.88;99167.57;1647256;87;21081;-78
2022/09/03 09:29:49;;;;;;;0.72;0.70;;;;;;;20.96;70.20;99163.27;1654266;85;21017;-78
2022/09/03 09:32:18;;;;;;;1.15;0.70;;;;;;;20.95;67.40;99169.97;1654840;86;21021;-79
2022/09/03 09:34:45;;;;;;;0.65;0.57;;;;;;;20.99;67.55;99167.05;1654304;85;21061;-79
2022/09/03 09:37:16;;;;;;;0.62;0.60;;;;;;;21.16;68.91;99175.63;1653034;86;21395;-79
2022/09/03 09:39:56;;;;;;;0.78;0.70;;;;;;;21.28;68.21;99162.05;1650221;87;21636;-79
2022/09/03 09:42:24;;;;;;;3.45;0.80;;;;;;;21.31;68.56;99169.75;1649113;87;21600;-80
2022/09/03 09:44:51;;;;;;;0.85;0.80;;;;;;;21.43;67.54;99171.62;1651052;87;21100;-78
2022/09/03 09:47:25;;;;;;;1.67;0.70;;;;;;;21.51;68.08;99169.77;1613359;87;21013;-78
2022/09/03 09:49:56;;;;;;;0.57;0.57;;;;;;;21.49;66.81;99169.00;1649562;87;21089;-80
2022/09/03 09:52:28;;;;;;;1.55;0.70;;;;;;;21.56;65.46;99173.77;1650629;85;21093;-79
2022/09/03 09:55:08;;;;;;;1.62;1.00;;;;;;;21.66;66.06;99172.66;1614303;89;21086;-78
2022/09/03 09:57:36;;;;;;;0.85;0.82;;;;;;;21.64;65.96;99178.05;1650670;85;21015;-78
2022/09/03 10:00:15;;;;;;;0.75;0.75;;;;;;;21.62;66.23;99174.66;1614307;87;21087;-78
2022/09/03 10:02:53;;;;;;;1.87;0.80;;;;;;;21.80;66.09;99176.98;1650569;85;21017;-79
2022/09/03 10:05:32;;;;;;;0.93;0.70;;;;;;;21.70;65.45;99178.58;1650634;85;21078;-79
2022/09/03 10:08:06;;;;;;;0.78;0.75;;;;;;;21.59;64.36;99177.53;1650448;85;21598;-79
2022/09/03 10:10:42;;;;;;;1.20;0.80;;;;;;;21.51;64.85;99181.19;1614321;89;21088;-79
2022/09/03 10:13:18;;;;;;;1.62;0.90;;;;;;;21.42;65.46;99177.33;1650545;85;21094;-78
2022/09/03 10:16:02;;;;;;;1.00;0.70;;;;;;;21.48;65.94;99172.61;1650702;87;21089;-79
2022/09/03 10:18:53;;;;;;;2.27;0.98;;;;;;;21.45;65.12;99170.55;1650509;86;21045;-79
2022/09/03 10:21:25;;;;;;;0.85;0.65;;;;;;;21.53;65.50;99170.03;1650610;85;21085;-79
2022/09/03 10:24:18;;;;;;;1.00;0.50;;;;;;;21.53;64.43;99171.84;1650478;85;21029;-78
2022/09/03 10:26:45;;;;;;;0.70;0.70;;;;;;;21.50;65.02;99174.19;1638184;85;21073;-79
2022/09/03 10:29:22;;;;;;;3.85;0.80;;;;;;;21.47;64.93;99161.20;1642047;85;21032;-79
2022/09/03 10:32:22;;;;;;;0.60;0.60;;;;;;;21.49;64.46;99164.58;1650344;85;21057;-79
2022/09/03 10:35:25;;;;;;;0.75;0.75;;;;;;;21.57;64.37;99160.92;1650215;85;21041;-79
2022/09/03 10:38:17;;;;;;;1.17;0.90;;;;;;;21.72;64.87;99161.64;1650250;85;21593;-78
2022/09/03 10:41:01;;;;;;;0.53;0.50;;;;;;;21.64;64.77;99159.52;1650214;85;21748;-78
2022/09/03 10:43:57;;;;;;;0.80;0.80;;;;;;;21.63;64.55;99164.46;1650184;87;21065;-79
2022/09/03 10:46:31;;;;;;;2.47;0.68;;;;;;;21.51;65.20;99162.67;1650224;87;21081;-78
2022/09/03 10:49:09;;;;;;;1.00;0.80;;;;;;;21.43;64.81;99159.72;1636044;85;21632;-79
2022/09/03 10:51:53;;;;;;;0.90;0.75;;;;;;;21.35;65.64;99164.17;1649557;87;22186;-79
2022/09/03 10:54:34;;;;;;;3.37;0.80;;;;;;;21.29;65.32;99167.70;1648924;86;21073;-79
2022/09/03 10:57:28;;;;;;;1.55;1.10;;;;;;;21.19;65.58;99166.18;1650088;87;21065;-78
2022/09/03 11:00:12;;;;;;;3.05;1.20;;;;;;;21.13;66.00;99166.56;1649734;87;21033;-78
2022/09/03 11:02:47;;;;;;;2.33;1.10;;;;;;;21.09;66.45;99171.23;1649887;86;21033;-78
2022/09/03 11:05:38;;;;;;;3.75;1.12;;;;;;;21.08;66.35;99169.53;1650181;87;21541;-77
2022/09/03 11:08:16;;;;;;;1.98;1.05;;;;;;;21.15;67.05;99174.78;1649053;85;21101;-78
2022/09/03 11:10:53;;;;;;;1.62;0.80;;;;;;;21.16;66.21;99176.47;1666269;85;21031;-77
2022/09/03 11:13:34;;;;;;;1.25;0.90;;;;;;;21.23;66.45;99180.40;1651101;85;21057;-78
2022/09/03 11:16:10;;;;;;;1.12;0.88;;;;;;;21.23;66.28;99179.56;1650283;87;21052;-77
2022/09/03 11:18:55;;;;;;;3.25;1.10;;;;;;;21.25;66.24;99174.53;1650099;85;21096;-78
2022/09/03 11:21:25;;;;;;;2.05;1.00;;;;;;;21.35;66.73;99172.59;1650265;87;21022;-78
2022/09/03 11:24:15;;;;;;;4.05;1.00;;;;;;;21.39;66.00;99180.69;1650171;85;21052;-79
2022/09/03 11:26:47;;;;;;;0.70;0.70;;;;;;;21.42;65.62;99172.04;1649201;87;21353;-78
2022/09/03 11:29:30;;;;;;;0.95;0.80;;;;;;;21.47;66.00;99182.36;1650093;85;21550;-78
2022/09/03 11:32:23;;;;;;;2.02;1.20;;;;;;;21.57;66.46;99174.64;1668182;85;21081;-78
2022/09/03 11:34:53;;;;;;;2.25;1.17;;;;;;;21.70;66.54;99186.52;1650080;87;21410;-80
2022/09/03 11:37:27;;;;;;;4.62;1.00;;;;;;;21.75;66.14;99185.73;1604508;87;21050;-77
2022/09/03 11:40:20;;;;;;;3.67;0.88;;;;;;;21.82;65.51;99177.23;1654815;85;21093;-78
2022/09/03 11:42:47;;;;;;;3.10;1.10;;;;;;;21.87;64.73;99177.42;1654853;85;21162;-80
2022/09/03 11:45:31;;;;;;;4.83;1.67;;;;;;;21.91;66.19;99181.05;1622965;88;21043;-79
2022/09/03 11:47:58;;;;;;;2.37;1.22;;;;;;;21.92;65.61;99177.44;1654495;85;21021;-79
2022/09/03 11:50:30;;;;;;;2.12;1.02;;;;;;;21.90;65.65;99184.64;1654538;87;21691;-78
2022/09/03 11:53:20;;;;;;;1.22;0.88;;;;;;;21.90;64.92;99184.64;1654765;86;21061;-78
2022/09/03 11:56:07;;;;;;;1.00;0.80;;;;;;;21.87;64.95;99184.03;1654813;85;21124;-78
2022/09/03 11:58:41;;;;;;;1.00;0.70;;;;;;;21.79;64.69;99193.34;1655101;85;21057;-78
2022/09/03 12:01:13;;;;;;;0.75;0.75;;;;;;;21.73;64.93;99190.30;1655004;85;22181;-77
2022/09/03 12:03:51;;;;;;;3.10;0.80;;;;;;;21.64;64.75;99189.11;1654995;85;21625;-77
2022/09/03 12:06:55;;;;;;;3.30;0.80;;;;;;;21.61;65.44;99188.86;1656239;85;21049;-80
2022/09/03 12:09:36;;;;;;;2.55;0.90;;;;;;;21.56;65.88;99188.31;1654872;85;21029;-79
2022/09/03 12:12:34;;;;;;;3.72;0.95;;;;;;;21.54;66.06;99187.58;1654895;85;21017;-78
2022/09/03 12:15:06;;;;;;;1.47;0.80;;;;;;;21.51;66.25;99183.00;1654872;86;21093;-78